Time;durP1;ratioP1;P1;durP2;ratioP2;P2;SDS_P1;SDS_P2;PMS_P1;PMS_P2;Temp;Humidity;BMP_temperature;BMP_pressure;BME280_temperature;BME280_humidity;BME280_pressure;Samples;Min_cycle;Max_cycle;Signal;HPM_P1;HPM_P2
2021/04/27 00:00:18;;;;;;;5.2;1.6;;;;;;;5.82;68.68457;930.1209;;;;
2021/04/27 00:02:43;;;;;;;2.5;1.5;;;;;;;5.79;68.96289;930.0334;;;;
2021/04/27 00:05:09;;;;;;;2;1.5;;;;;;;5.86;68.69141;930.0797;;;;
2021/04/27 00:07:34;;;;;;;2.5;1.5;;;;;;;5.86;68.41895;930.0818;;;;
2021/04/27 00:09:59;;;;;;;2.5;1.7;;;;;;;5.9;67.68066;930.0458;;;;
2021/04/27 00:12:24;;;;;;;4;2.1;;;;;;;5.95;67.48633;930.0369;;;;
2021/04/27 00:14:54;;;;;;;2.8;1.7;;;;;;;5.93;67.48242;929.9631;;;;
2021/04/27 00:17:24;;;;;;;2.5;1.7;;;;;;;5.86;67.79785;929.882;;;;
2021/04/27 00:19:49;;;;;;;3.3;1.5;;;;;;;5.86;67.84473;929.8703;;;;
2021/04/27 00:22:14;;;;;;;3.9;2;;;;;;;5.71;68.29492;929.8798;;;;
2021/04/27 00:24:39;;;;;;;2.3;1.5;;;;;;;5.7;68.84473;929.9246;;;;
2021/04/27 00:27:05;;;;;;;3.4;2;;;;;;;5.54;68.89941;929.8361;;;;
2021/04/27 00:29:33;;;;;;;3.6;1.9;;;;;;;5.33;69.65527;929.8382;;;;
2021/04/27 00:31:58;;;;;;;3.8;1.9;;;;;;;5.26;70.08301;929.8703;;;;
2021/04/27 00:34:25;;;;;;;3.6;1.9;;;;;;;5.2;70.38867;929.8572;;;;
2021/04/27 00:36:50;;;;;;;1.7;1.5;;;;;;;5.31;70.12598;929.8474;;;;
2021/04/27 00:39:19;;;;;;;2.5;1.7;;;;;;;5.29;70.11035;929.8408;;;;
2021/04/27 00:41:44;;;;;;;2;1.5;;;;;;;5.32;70.01465;929.8506;;;;
2021/04/27 00:44:09;;;;;;;2.9;1.9;;;;;;;5.32;70.33105;929.6779;;;;
2021/04/27 00:46:34;;;;;;;3.7;2;;;;;;;5.22;70.75391;929.7402;;;;
2021/04/27 00:48:59;;;;;;;2.8;1.3;;;;;;;5.12;70.96191;929.7715;;;;
2021/04/27 00:51:26;;;;;;;3.3;2;;;;;;;5.01;71.40625;929.7255;;;;
2021/04/27 00:53:51;;;;;;;2.1;1.7;;;;;;;5.08;71.10254;929.7061;;;;
2021/04/27 00:56:18;;;;;;;2.4;1.8;;;;;;;5.11;70.86035;929.7114;;;;
2021/04/27 00:58:43;;;;;;;1.8;1.4;;;;;;;4.85;71.77441;929.543;;;;
2021/04/27 01:01:11;;;;;;;2.1;1.5;;;;;;;4.69;72.62598;929.6203;;;;
2021/04/27 01:03:33;;;;;;;2.3;1.9;;;;;;;4.68;72.78223;929.5728;;;;
2021/04/27 01:05:59;;;;;;;2.3;1.5;;;;;;;4.74;72.37598;929.5865;;;;
2021/04/27 01:08:24;;;;;;;3.4;2.1;;;;;;;4.69;72.41211;929.5627;;;;
2021/04/27 01:10:50;;;;;;;2.3;1.7;;;;;;;4.34;73.65723;929.5087;;;;
2021/04/27 01:13:15;;;;;;;2.1;1.5;;;;;;;4.33;74.10645;929.5511;;;;
2021/04/27 01:15:53;;;;;;;6.3;2.2;;;;;;;4.47;73.75781;929.546;;;;
2021/04/27 01:18:20;;;;;;;3;1.7;;;;;;;4.45;73.75488;929.5322;;;;
2021/04/27 01:20:47;;;;;;;3.3;1.4;;;;;;;4.51;73.62891;929.3875;;;;
2021/04/27 01:23:17;;;;;;;2.5;1.6;;;;;;;4.57;73.24805;929.4161;;;;
2021/04/27 01:25:46;;;;;;;5.3;2.4;;;;;;;4.62;73.09766;929.3597;;;;
2021/04/27 01:28:11;;;;;;;2.7;1.5;;;;;;;4.67;72.69043;929.374;;;;
2021/04/27 01:30:44;;;;;;;2.8;1.9;;;;;;;4.75;72.11816;929.317;;;;
2021/04/27 01:33:13;;;;;;;2.8;1.9;;;;;;;4.71;72.12305;929.2714;;;;
2021/04/27 01:35:38;;;;;;;2.9;1.4;;;;;;;4.79;71.8877;929.3547;;;;
2021/04/27 01:38:03;;;;;;;2.5;2.1;;;;;;;4.75;71.73535;929.3091;;;;
2021/04/27 01:40:35;;;;;;;2.5;1.8;;;;;;;4.63;72.08594;929.3141;;;;
2021/04/27 01:43:03;;;;;;;3.6;2;;;;;;;4.58;72.30371;929.3462;;;;
2021/04/27 01:45:28;;;;;;;5.4;1.6;;;;;;;4.65;72.16895;929.3224;;;;
2021/04/27 01:47:53;;;;;;;3.1;1.8;;;;;;;4.64;72.3125;929.3585;;;;
2021/04/27 01:50:21;;;;;;;2.3;1.4;;;;;;;4.73;71.85449;929.2891;;;;
2021/04/27 01:52:46;;;;;;;3.2;1.9;;;;;;;4.78;71.64844;929.36;;;;
2021/04/27 01:55:14;;;;;;;3.3;1.6;;;;;;;4.74;71.55176;929.3026;;;;
2021/04/27 01:57:39;;;;;;;2.8;1.8;;;;;;;4.7;71.60254;929.35;;;;
2021/04/27 02:00:07;;;;;;;3;1.6;;;;;;;4.64;71.80566;929.3056;;;;
2021/04/27 02:02:35;;;;;;;2.6;1.9;;;;;;;4.66;71.8877;929.3619;;;;
2021/04/27 02:05:01;;;;;;;2.7;1.5;;;;;;;4.72;71.56152;929.3836;;;;
2021/04/27 02:07:28;;;;;;;3.8;2;;;;;;;4.7;71.60254;929.3485;;;;
2021/04/27 02:09:52;;;;;;;3.1;1.8;;;;;;;4.69;71.55371;929.2971;;;;
2021/04/27 02:12:21;;;;;;;4.3;2;;;;;;;4.69;71.39941;929.29;;;;
2021/04/27 02:14:46;;;;;;;1.8;1.4;;;;;;;4.67;71.46289;929.2439;;;;
2021/04/27 02:17:16;;;;;;;3.5;1.9;;;;;;;4.53;71.83203;929.3256;;;;
2021/04/27 02:19:45;;;;;;;2.1;1.7;;;;;;;4.2;73.2832;929.3245;;;;
2021/04/27 02:22:13;;;;;;;2.5;2;;;;;;;4.2;73.55566;929.3254;;;;
2021/04/27 02:24:44;;;;;;;2.3;1.7;;;;;;;4.09;73.91699;929.3203;;;;
2021/04/27 02:27:13;;;;;;;1.6;1.5;;;;;;;4.04;74.08984;929.2665;;;;
2021/04/27 02:29:45;;;;;;;6.5;2.1;;;;;;;4.01;74.74707;929.202;;;;
2021/04/27 02:32:15;;;;;;;5.3;2.3;;;;;;;3.99;74.67578;929.2068;;;;
2021/04/27 02:34:40;;;;;;;3.4;1.7;;;;;;;3.82;75.35547;929.151;;;;
2021/04/27 02:37:12;;;;;;;3.1;1.9;;;;;;;3.69;76.07324;929.1584;;;;
2021/04/27 02:39:37;;;;;;;4;1.9;;;;;;;3.76;75.76074;929.0708;;;;
2021/04/27 02:42:02;;;;;;;3.3;1.9;;;;;;;3.77;75.68359;929.1316;;;;
2021/04/27 02:44:27;;;;;;;2.9;1.9;;;;;;;3.66;76.12305;929.0767;;;;
2021/04/27 02:46:58;;;;;;;2.6;1.9;;;;;;;3.65;75.96582;929.019;;;;
2021/04/27 02:49:28;;;;;;;4.4;1.9;;;;;;;3.55;76.34082;929.0065;;;;
2021/04/27 02:51:58;;;;;;;2.3;1.7;;;;;;;3.54;76.44043;928.9487;;;;
2021/04/27 02:54:24;;;;;;;4.4;2.5;;;;;;;3.4;76.9541;928.9023;;;;
2021/04/27 02:56:49;;;;;;;5.8;2.1;;;;;;;3.38;77.06152;928.9113;;;;
2021/04/27 02:59:19;;;;;;;2.7;1.9;;;;;;;3.42;76.85742;928.8819;;;;
2021/04/27 03:01:48;;;;;;;3.3;2;;;;;;;3.26;77.58008;928.868;;;;
2021/04/27 03:04:13;;;;;;;4.7;1.6;;;;;;;3.17;78.23535;928.8436;;;;
2021/04/27 03:06:40;;;;;;;6.6;2.3;;;;;;;3.29;77.82129;928.7924;;;;
2021/04/27 03:09:05;;;;;;;2.4;1.6;;;;;;;3.42;77.27148;928.7802;;;;
2021/04/27 03:11:32;;;;;;;2.3;1.7;;;;;;;3.4;77.05469;928.7521;;;;
2021/04/27 03:14:03;;;;;;;1.9;1.7;;;;;;;3.36;77.08203;928.7261;;;;
2021/04/27 03:16:34;;;;;;;2.9;2.3;;;;;;;3.49;76.71191;928.7329;;;;
2021/04/27 03:19:04;;;;;;;3;2;;;;;;;3.49;76.47754;928.7307;;;;
2021/04/27 03:21:32;;;;;;;1.9;1.7;;;;;;;3.52;76.24512;928.6588;;;;
2021/04/27 03:23:58;;;;;;;2.7;2;;;;;;;3.57;75.94043;928.6889;;;;
2021/04/27 03:26:28;;;;;;;2.9;2;;;;;;;3.54;75.91113;928.7166;;;;
2021/04/27 03:28:59;;;;;;;3.7;2.1;;;;;;;3.53;75.88672;928.7692;;;;
2021/04/27 03:31:30;;;;;;;5.6;1.9;;;;;;;3.62;75.57715;928.7767;;;;
2021/04/27 03:33:54;;;;;;;4;2.1;;;;;;;3.69;75.16309;928.7789;;;;
2021/04/27 03:36:22;;;;;;;3.3;2.1;;;;;;;3.65;75.25781;928.7459;;;;
2021/04/27 03:38:47;;;;;;;5.1;1.7;;;;;;;3.46;75.7959;928.7355;;;;
2021/04/27 03:41:12;;;;;;;3.6;2.1;;;;;;;3.21;76.95313;928.6867;;;;
2021/04/27 03:43:41;;;;;;;2.3;2;;;;;;;3.16;77.42578;928.6744;;;;
2021/04/27 03:46:12;;;;;;;4.5;2.8;;;;;;;3.08;77.94043;928.5619;;;;
2021/04/27 03:48:42;;;;;;;2;1.8;;;;;;;3.05;78.10156;928.6311;;;;
2021/04/27 03:51:07;;;;;;;4.8;2.6;;;;;;;3.04;78.11328;928.6184;;;;
2021/04/27 03:53:32;;;;;;;2.6;1.9;;;;;;;3.01;78.3418;928.5997;;;;
2021/04/27 03:55:57;;;;;;;3.5;2.2;;;;;;;3.04;78.58301;928.5185;;;;
2021/04/27 03:58:24;;;;;;;4.5;2.5;;;;;;;3.07;78.72266;928.5277;;;;
2021/04/27 04:02:38;;;;;;;2.8;2.1;;;;;;;3.09;78.37891;928.5196;;;;
2021/04/27 04:05:04;;;;;;;3.3;1.9;;;;;;;3.16;77.97559;928.4942;;;;
2021/04/27 04:07:29;;;;;;;4.5;2.2;;;;;;;3.23;77.58496;928.5834;;;;
2021/04/27 04:09:57;;;;;;;5.3;2;;;;;;;3.28;77.25781;928.5601;;;;
2021/04/27 04:12:23;;;;;;;4.8;2.8;;;;;;;3.24;77.62012;928.5513;;;;
2021/04/27 04:14:55;;;;;;;5.6;2.5;;;;;;;3.29;77.4043;928.5641;;;;
2021/04/27 04:17:34;;;;;;;4.6;2.7;;;;;;;3.35;77.11426;928.4703;;;;
2021/04/27 04:20:04;;;;;;;3.2;2;;;;;;;3.35;77.04492;928.5967;;;;
2021/04/27 04:22:32;;;;;;;4.3;2.6;;;;;;;3.39;77.04004;928.548;;;;
2021/04/27 04:24:58;;;;;;;3.2;2.4;;;;;;;3.44;76.75977;928.551;;;;
2021/04/27 04:27:28;;;;;;;4.1;1.9;;;;;;;3.5;76.45508;928.6119;;;;
2021/04/27 04:29:59;;;;;;;3.3;2.3;;;;;;;3.53;76.23535;928.6016;;;;
2021/04/27 04:32:24;;;;;;;3.6;2.5;;;;;;;3.38;76.66992;928.6014;;;;
2021/04/27 04:34:55;;;;;;;2;1.8;;;;;;;3.31;77.33008;928.5881;;;;
2021/04/27 04:37:25;;;;;;;4.5;2.4;;;;;;;3.35;77.24707;928.5371;;;;
2021/04/27 04:39:55;;;;;;;2.6;1.9;;;;;;;3.46;77.04199;928.4924;;;;
2021/04/27 04:42:23;;;;;;;4.4;2.2;;;;;;;3.49;76.59961;928.5582;;;;
2021/04/27 04:44:52;;;;;;;3.7;1.9;;;;;;;3.46;76.53809;928.5812;;;;
2021/04/27 04:47:17;;;;;;;1.9;1.7;;;;;;;3.39;76.87305;928.5638;;;;
2021/04/27 04:49:50;;;;;;;2.7;1.9;;;;;;;3.51;76.51465;928.4855;;;;
2021/04/27 04:52:15;;;;;;;3.6;2.3;;;;;;;3.55;76.20605;928.4917;;;;
2021/04/27 04:54:42;;;;;;;3.3;1.8;;;;;;;3.59;75.93164;928.4949;;;;
2021/04/27 04:57:07;;;;;;;1.6;1.5;;;;;;;3.6;75.91113;928.5178;;;;
2021/04/27 04:59:34;;;;;;;4.4;2;;;;;;;3.69;75.87109;928.4893;;;;
2021/04/27 05:02:00;;;;;;;2.7;2;;;;;;;3.64;75.97559;928.512;;;;
2021/04/27 05:04:27;;;;;;;2;1.5;;;;;;;3.56;76.10742;928.5172;;;;
2021/04/27 05:06:57;;;;;;;4;2.3;;;;;;;3.59;76.17871;928.546;;;;
2021/04/27 05:09:18;;;;;;;4.1;2.1;;;;;;;3.64;75.92871;928.5426;;;;
2021/04/27 05:11:49;;;;;;;3.3;2.3;;;;;;;3.77;76.04492;928.5475;;;;
2021/04/27 05:14:19;;;;;;;2.7;1.8;;;;;;;3.88;75.43457;928.5553;;;;
2021/04/27 05:16:44;;;;;;;3.1;2;;;;;;;4;75.15137;928.5929;;;;
2021/04/27 05:19:09;;;;;;;2.8;2;;;;;;;4.05;75.04688;928.5681;;;;
2021/04/27 05:21:38;;;;;;;3.7;2.6;;;;;;;3.91;75.73145;928.6259;;;;
2021/04/27 05:24:10;;;;;;;1.8;1.6;;;;;;;4.07;75.43262;928.6236;;;;
2021/04/27 05:26:42;;;;;;;2.2;1.8;;;;;;;4.24;74.4502;928.6102;;;;
2021/04/27 05:29:13;;;;;;;4.6;2.6;;;;;;;4.96;73.58301;928.5531;;;;
2021/04/27 05:31:37;;;;;;;3.5;1.9;;;;;;;6.49;67.94531;928.4802;;;;
2021/04/27 05:34:05;;;;;;;5.8;2.1;;;;;;;7.87;62.71582;928.5556;;;;
2021/04/27 05:36:36;;;;;;;2.4;1.5;;;;;;;9.32;57.79199;928.4719;;;;
2021/04/27 05:39:08;;;;;;;2.6;1.6;;;;;;;10.89;53.05469;928.4661;;;;
2021/04/27 05:41:41;;;;;;;3.5;1.9;;;;;;;12.37;48.25977;928.4495;;;;
2021/04/27 05:44:07;;;;;;;6.5;2.2;;;;;;;13.63;43.8125;928.4193;;;;
2021/04/27 05:46:38;;;;;;;5;2.6;;;;;;;13.99;43.08887;928.4264;;;;
2021/04/27 05:49:09;;;;;;;3.8;1.8;;;;;;;13.28;44.89258;928.444;;;;
2021/04/27 05:51:38;;;;;;;3.5;1.5;;;;;;;14.74;41.2373;928.3976;;;;
2021/04/27 05:54:03;;;;;;;4.4;1.5;;;;;;;15.04;40.58496;928.3976;;;;
2021/04/27 05:56:55;;;;;;;5.2;1.5;;;;;;;15.6;39.22754;928.3656;;;;
2021/04/27 05:59:08;;;;;;;1.5;1.2;;;;;;;15.98;38.68457;928.4034;;;;
2021/04/27 06:01:33;;;;;;;3.5;1.2;;;;;;;16.96;36.68555;928.3461;;;;
2021/04/27 06:03:59;;;;;;;6.7;1.2;;;;;;;17.27;35.94531;928.2742;;;;
2021/04/27 06:06:24;;;;;;;4.8;1.2;;;;;;;17.6;36.12305;928.2888;;;;
2021/04/27 06:08:50;;;;;;;1.8;1.2;;;;;;;18.45;34.34473;928.2853;;;;
2021/04/27 06:11:15;;;;;;;5.3;1.5;;;;;;;18.98;33.20996;928.1976;;;;
2021/04/27 06:13:42;;;;;;;2.2;1.2;;;;;;;19.5;32.18848;928.2305;;;;
2021/04/27 06:16:09;;;;;;;3;1.4;;;;;;;19.7;31.65527;928.2672;;;;
2021/04/27 06:18:39;;;;;;;7.7;2;;;;;;;20.06;31.37793;928.2088;;;;
2021/04/27 06:21:06;;;;;;;2.3;1.6;;;;;;;19.29;32.91895;928.2208;;;;
2021/04/27 06:23:33;;;;;;;1.5;1.1;;;;;;;19.82;32.00293;928.2078;;;;
2021/04/27 06:25:58;;;;;;;1.1;0.9;;;;;;;20.39;30.88672;928.181;;;;
2021/04/27 06:28:28;;;;;;;2.3;1;;;;;;;19.96;31.96582;928.2256;;;;
2021/04/27 06:30:53;;;;;;;1.4;0.9;;;;;;;19.35;32.13086;928.1909;;;;
2021/04/27 06:33:21;;;;;;;1.2;0.9;;;;;;;19.29;32.41797;928.1295;;;;
2021/04/27 06:35:52;;;;;;;2.4;1.1;;;;;;;19.17;32.47852;928.1678;;;;
2021/04/27 06:38:23;;;;;;;1.9;0.7;;;;;;;19.59;32.65039;928.1259;;;;
2021/04/27 06:40:48;;;;;;;3.3;1.6;;;;;;;19.91;31.41406;928.1364;;;;
2021/04/27 06:43:13;;;;;;;2.8;0.9;;;;;;;20.88;30.0332;928.1345;;;;
2021/04/27 06:45:39;;;;;;;1.9;1.3;;;;;;;20.67;30.20605;927.9902;;;;
2021/04/27 06:48:04;;;;;;;1.4;1;;;;;;;21.46;28.9834;928.0117;;;;
2021/04/27 06:50:33;;;;;;;4.1;1.4;;;;;;;21.8;28.78418;927.9199;;;;
2021/04/27 06:52:58;;;;;;;0.6;0.6;;;;;;;21.87;27.97949;927.9266;;;;
2021/04/27 06:55:24;;;;;;;0.8;0.6;;;;;;;22.39;27.30859;927.9059;;;;
2021/04/27 06:57:49;;;;;;;2.5;1.4;;;;;;;22.09;28.02832;927.8314;;;;
2021/04/27 07:00:14;;;;;;;1.9;0.8;;;;;;;22.48;27.66602;927.7955;;;;
2021/04/27 07:02:40;;;;;;;4.2;1.2;;;;;;;24.21;25.55957;927.7881;;;;
2021/04/27 07:05:09;;;;;;;2.6;1.4;;;;;;;23.84;26.18555;927.7571;;;;
2021/04/27 07:07:38;;;;;;;1.2;1.1;;;;;;;23.1;26.44727;927.6847;;;;
2021/04/27 07:10:03;;;;;;;1.1;0.8;;;;;;;22.83;25.8916;927.6964;;;;
2021/04/27 07:12:28;;;;;;;1.4;1.1;;;;;;;22.79;27.00391;927.6636;;;;
2021/04/27 07:14:54;;;;;;;3.1;1.8;;;;;;;23.66;26.98633;927.6462;;;;
2021/04/27 07:17:29;;;;;;;2.7;1.5;;;;;;;24.32;25.12988;927.617;;;;
2021/04/27 07:20:13;;;;;;;2.2;1.2;;;;;;;23.42;26.30176;927.5743;;;;
2021/04/27 07:22:49;;;;;;;2.5;1.1;;;;;;;24.39;25.86426;927.5625;;;;
2021/04/27 07:25:20;;;;;;;2.6;1.4;;;;;;;25.02;24.83887;927.5782;;;;
2021/04/27 07:27:50;;;;;;;5.2;0.8;;;;;;;26.06;23.61914;927.481;;;;
2021/04/27 07:30:16;;;;;;;5.1;1.4;;;;;;;26.86;23.37695;927.4631;;;;
2021/04/27 07:32:44;;;;;;;2.6;0.9;;;;;;;27.32;21.98926;927.4641;;;;
2021/04/27 07:35:09;;;;;;;2.2;0.8;;;;;;;27.2;22.24512;927.4994;;;;
2021/04/27 07:37:39;;;;;;;2.1;1.1;;;;;;;26.09;24.12988;927.4812;;;;
2021/04/27 07:40:12;;;;;;;2.1;1.1;;;;;;;25.94;23.3291;927.5326;;;;
2021/04/27 07:42:37;;;;;;;1.8;1.2;;;;;;;25.37;24.30273;927.5087;;;;
2021/04/27 07:45:09;;;;;;;1.2;1;;;;;;;24.39;25.52246;927.53;;;;
2021/04/27 07:47:34;;;;;;;2.8;1;;;;;;;25.04;25.33594;927.5518;;;;
2021/04/27 07:49:59;;;;;;;1;0.8;;;;;;;25.26;25.60742;927.4687;;;;
2021/04/27 07:52:28;;;;;;;2;0.8;;;;;;;23.51;27.4248;927.4698;;;;
2021/04/27 07:54:53;;;;;;;0.8;0.8;;;;;;;24.02;27.16211;927.4291;;;;
2021/04/27 07:57:22;;;;;;;1.5;0.9;;;;;;;23.73;27.00293;927.3719;;;;
2021/04/27 07:59:47;;;;;;;1.3;0.7;;;;;;;24.01;26.7959;927.4369;;;;
2021/04/27 08:02:15;;;;;;;1;0.9;;;;;;;25.06;25.18262;927.3211;;;;
2021/04/27 08:04:40;;;;;;;1;0.6;;;;;;;26.08;24.24707;927.332;;;;
2021/04/27 08:07:07;;;;;;;2.5;1.1;;;;;;;26.08;24.11621;927.3245;;;;
2021/04/27 08:09:32;;;;;;;1.5;0.9;;;;;;;23.76;27.29785;927.3583;;;;
2021/04/27 08:12:01;;;;;;;1.6;1.1;;;;;;;24.16;26.09863;927.3066;;;;
2021/04/27 08:14:26;;;;;;;1;0.9;;;;;;;22.66;29.21484;927.3406;;;;
2021/04/27 08:17:07;;;;;;;2.1;1;;;;;;;21.42;30.07031;927.3184;;;;
2021/04/27 08:19:37;;;;;;;1.7;1.3;;;;;;;21.89;29.42188;927.3351;;;;
2021/04/27 08:22:05;;;;;;;1.3;0.8;;;;;;;21.03;31.68066;927.3014;;;;
2021/04/27 08:24:28;;;;;;;2.6;1.1;;;;;;;21.27;30.83105;927.2679;;;;
2021/04/27 08:26:55;;;;;;;1.8;1.2;;;;;;;22.78;28.90625;927.2216;;;;
2021/04/27 08:29:20;;;;;;;1.2;0.7;;;;;;;23.27;28.18555;927.275;;;;
2021/04/27 08:31:47;;;;;;;0.9;0.9;;;;;;;24.87;25.85645;927.2533;;;;
2021/04/27 08:34:12;;;;;;;2.7;1.2;;;;;;;23.64;27.38574;927.2853;;;;
2021/04/27 08:36:41;;;;;;;0.9;0.9;;;;;;;22.28;29.90527;927.3295;;;;
2021/04/27 08:39:06;;;;;;;1.9;0.9;;;;;;;22.37;29.62891;927.2366;;;;
2021/04/27 08:41:32;;;;;;;4.7;1.1;;;;;;;22.66;29.02734;927.3078;;;;
2021/04/27 08:43:57;;;;;;;3.5;1.1;;;;;;;22.96;28.96484;927.2058;;;;
2021/04/27 08:46:24;;;;;;;3.7;1.5;;;;;;;22.07;30.57129;927.2177;;;;
2021/04/27 08:48:49;;;;;;;1.7;0.9;;;;;;;21.42;31.88477;927.2098;;;;
2021/04/27 08:51:15;;;;;;;1.8;0.9;;;;;;;21.27;32.04883;927.2725;;;;
2021/04/27 08:53:40;;;;;;;3.9;1.3;;;;;;;20.69;33.39746;927.3155;;;;
2021/04/27 08:56:07;;;;;;;4.9;1.3;;;;;;;20.27;32.49023;927.2733;;;;
2021/04/27 08:58:32;;;;;;;1.7;1.3;;;;;;;20.59;32.70117;927.2268;;;;
2021/04/27 09:01:02;;;;;;;1.4;1.2;;;;;;;20.5;33.58203;927.2374;;;;
2021/04/27 09:03:29;;;;;;;4.4;1.3;;;;;;;20.9;33.26172;927.1369;;;;
2021/04/27 09:05:54;;;;;;;1.1;1;;;;;;;21.12;33.18359;927.1256;;;;
2021/04/27 09:08:20;;;;;;;1.5;1.2;;;;;;;21.61;30.30469;927.0486;;;;
2021/04/27 09:10:45;;;;;;;1.2;0.8;;;;;;;21.28;31.61621;927.0349;;;;
2021/04/27 09:13:14;;;;;;;2.5;1.1;;;;;;;21.05;33.56543;927.0424;;;;
2021/04/27 09:15:53;;;;;;;1.3;0.8;;;;;;;22.21;30.9082;926.9813;;;;
2021/04/27 09:18:23;;;;;;;0.7;0.7;;;;;;;21.73;31.51953;926.9568;;;;
2021/04/27 09:20:52;;;;;;;1.6;1.1;;;;;;;21.77;32.78809;927.0286;;;;
2021/04/27 09:23:17;;;;;;;1.6;1.2;;;;;;;21.19;32.81543;927.0347;;;;
2021/04/27 09:25:48;;;;;;;3.4;1.4;;;;;;;21.01;33.45703;927.0204;;;;
2021/04/27 09:28:18;;;;;;;2.1;1;;;;;;;20.5;33.41797;926.9295;;;;
2021/04/27 09:30:44;;;;;;;1.5;1.2;;;;;;;20.87;33.01367;926.9286;;;;
2021/04/27 09:33:13;;;;;;;3.6;1.6;;;;;;;20.3;35.07227;926.8848;;;;
2021/04/27 09:35:39;;;;;;;2.6;1.2;;;;;;;20.45;33.83496;926.9682;;;;
2021/04/27 09:38:03;;;;;;;1.7;1.3;;;;;;;20.14;36.15723;926.8853;;;;
2021/04/27 09:40:28;;;;;;;2.4;1.1;;;;;;;20.45;33.91699;926.8049;;;;
2021/04/27 09:42:53;;;;;;;2.1;1.2;;;;;;;20;35.375;926.8325;;;;
2021/04/27 09:45:18;;;;;;;1.7;1;;;;;;;19.72;36.05371;926.8049;;;;
2021/04/27 09:47:44;;;;;;;1.3;1.1;;;;;;;19.35;36.42969;926.8469;;;;
2021/04/27 09:50:09;;;;;;;6.1;1.5;;;;;;;19.62;36.37109;926.8359;;;;
2021/04/27 09:52:34;;;;;;;1.7;1.6;;;;;;;20.08;34.70605;926.8144;;;;
2021/04/27 09:55:01;;;;;;;5.3;1;;;;;;;19.97;35.48926;926.7547;;;;
2021/04/27 09:57:27;;;;;;;1.8;1.1;;;;;;;20.16;34.83984;926.6024;;;;
2021/04/27 09:59:52;;;;;;;1.1;1;;;;;;;20.2;34.95898;926.7056;;;;
2021/04/27 10:02:17;;;;;;;1.6;1.3;;;;;;;19.86;36.79883;926.5315;;;;
2021/04/27 10:04:42;;;;;;;2.8;1.4;;;;;;;18.71;38.16895;926.5684;;;;
2021/04/27 10:07:10;;;;;;;1.8;1.2;;;;;;;18.52;38.79199;926.6037;;;;
2021/04/27 10:09:35;;;;;;;2;1.1;;;;;;;18.62;39.14941;926.4916;;;;
2021/04/27 10:12:00;;;;;;;1.5;1.2;;;;;;;19.02;39.27832;926.5424;;;;
2021/04/27 10:14:29;;;;;;;1.4;1.1;;;;;;;19.83;37.36816;926.4603;;;;
2021/04/27 10:17:15;;;;;;;8.1;1.5;;;;;;;19.32;37.35938;926.4968;;;;
2021/04/27 10:19:38;;;;;;;1.5;1.1;;;;;;;18.61;39.4043;926.4542;;;;
2021/04/27 10:22:08;;;;;;;1.1;0.9;;;;;;;18.53;40.94434;926.4393;;;;
2021/04/27 10:24:38;;;;;;;2.1;1.4;;;;;;;18.74;39.39355;926.454;;;;
2021/04/27 10:27:03;;;;;;;5.2;1.4;;;;;;;19.32;36.64941;926.3879;;;;
2021/04/27 10:29:33;;;;;;;2.8;1.1;;;;;;;19.6;36.41602;926.3269;;;;
2021/04/27 10:32:02;;;;;;;4.5;1.8;;;;;;;19.43;37.47363;926.3875;;;;
2021/04/27 10:34:30;;;;;;;1.3;0.9;;;;;;;19.07;39.12012;926.3201;;;;
2021/04/27 10:36:57;;;;;;;1.3;0.9;;;;;;;19.51;37.80664;926.1465;;;;
2021/04/27 10:39:29;;;;;;;2;1.5;;;;;;;19.17;38.41797;926.1586;;;;
2021/04/27 10:41:57;;;;;;;1.7;1.2;;;;;;;19.26;38.4375;926.0758;;;;
2021/04/27 10:44:28;;;;;;;3.3;1.2;;;;;;;19.08;38.31836;926.163;;;;
2021/04/27 10:46:54;;;;;;;3.7;1.7;;;;;;;18.94;38.8877;926.0857;;;;
2021/04/27 10:49:19;;;;;;;3.1;1.5;;;;;;;18.68;39.00391;926.2349;;;;
2021/04/27 10:51:45;;;;;;;1.4;0.9;;;;;;;19.09;39.2041;926.0611;;;;
2021/04/27 10:54:10;;;;;;;2;1.3;;;;;;;19.01;38.42773;926.0078;;;;
2021/04/27 10:56:35;;;;;;;4.4;2.1;;;;;;;19.18;38.38379;926.0896;;;;
2021/04/27 10:59:00;;;;;;;18.5;3.3;;;;;;;19.39;37.16699;926.0137;;;;
2021/04/27 11:01:25;;;;;;;2.3;1.2;;;;;;;19.19;37.32617;926.0737;;;;
2021/04/27 11:03:51;;;;;;;1.1;0.9;;;;;;;19.22;38.07324;926.0411;;;;
2021/04/27 11:06:16;;;;;;;4.7;1.4;;;;;;;19.24;37.12012;926.0477;;;;
2021/04/27 11:08:43;;;;;;;4.1;1.7;;;;;;;20.05;37.9707;925.9744;;;;
2021/04/27 11:11:08;;;;;;;2.8;1;;;;;;;20.6;35.16699;925.9807;;;;
2021/04/27 11:13:34;;;;;;;1.2;1.1;;;;;;;20.44;35.37598;925.9511;;;;
2021/04/27 11:16:12;;;;;;;1.5;1.2;;;;;;;19.71;38.94336;925.9031;;;;
2021/04/27 11:18:42;;;;;;;2.7;1.7;;;;;;;19.19;38.11816;925.9575;;;;
2021/04/27 11:21:12;;;;;;;2.4;1.3;;;;;;;19.23;39.49609;925.9348;;;;
2021/04/27 11:23:35;;;;;;;7.6;1.7;;;;;;;19.58;37.10254;925.9119;;;;
2021/04/27 11:26:02;;;;;;;1.2;1;;;;;;;20.03;36.88379;925.8699;;;;
2021/04/27 11:29:01;;;;;;;14.3;2;;;;;;;19.93;37.1084;925.8246;;;;
2021/04/27 11:31:26;;;;;;;3.3;1.8;;;;;;;20.27;35.95703;925.9103;;;;
2021/04/27 11:33:57;;;;;;;7.7;1.6;;;;;;;20.22;36.875;925.8736;;;;
2021/04/27 11:36:22;;;;;;;1.5;1.1;;;;;;;20.26;37.89551;925.8031;;;;
2021/04/27 11:38:52;;;;;;;2.3;1.1;;;;;;;20.6;37.86523;925.8519;;;;
2021/04/27 11:41:20;;;;;;;3;1.3;;;;;;;19.78;38.58789;925.8106;;;;
2021/04/27 11:43:45;;;;;;;0.9;0.8;;;;;;;19.74;37.36035;925.8041;;;;
2021/04/27 11:46:10;;;;;;;3.1;1.2;;;;;;;19.24;38.62207;925.8039;;;;
2021/04/27 11:48:39;;;;;;;3.6;1.5;;;;;;;20.28;37.6748;925.7327;;;;
2021/04/27 11:51:04;;;;;;;2.5;1.1;;;;;;;20.38;38.61719;925.8017;;;;
2021/04/27 11:53:31;;;;;;;11.5;2;;;;;;;20.75;35.63379;925.8127;;;;
2021/04/27 11:55:54;;;;;;;2.7;1.2;;;;;;;20.88;35.44531;925.7736;;;;
2021/04/27 11:58:22;;;;;;;1.6;1.1;;;;;;;21.38;34.36328;925.84;;;;
2021/04/27 12:00:48;;;;;;;3.9;1.5;;;;;;;21.46;34.09961;925.7683;;;;
2021/04/27 12:03:13;;;;;;;3.8;1.3;;;;;;;21.32;35.11816;925.7421;;;;
2021/04/27 12:05:38;;;;;;;3.4;1.3;;;;;;;21.43;34.47168;925.7211;;;;
2021/04/27 12:08:03;;;;;;;1.1;1;;;;;;;20.31;35.90234;925.7781;;;;
2021/04/27 12:10:30;;;;;;;3.7;1.5;;;;;;;20.31;35.35352;925.7402;;;;
2021/04/27 12:12:58;;;;;;;2.7;1.1;;;;;;;20.26;36.96094;925.7267;;;;
2021/04/27 12:15:33;;;;;;;3.2;1.7;;;;;;;20.62;35.82227;925.7791;;;;
2021/04/27 12:18:04;;;;;;;1.5;1.1;;;;;;;20.95;36.00195;925.7008;;;;
2021/04/27 12:20:30;;;;;;;1.3;1.1;;;;;;;20.33;37.41016;925.7766;;;;
2021/04/27 12:23:03;;;;;;;2.6;1.8;;;;;;;20.73;35.42188;925.7012;;;;
2021/04/27 12:25:33;;;;;;;6;1.1;;;;;;;20.68;37.22949;925.687;;;;
2021/04/27 12:28:04;;;;;;;3.7;1.4;;;;;;;20.26;37.04297;925.6334;;;;
2021/04/27 12:30:33;;;;;;;2.2;1.6;;;;;;;20.14;36.68262;925.6389;;;;
2021/04/27 12:33:03;;;;;;;1.9;1.4;;;;;;;20.3;38.40039;925.7278;;;;
2021/04/27 12:35:24;;;;;;;1.9;1.5;;;;;;;20.26;37.86035;925.5978;;;;
2021/04/27 12:37:49;;;;;;;3.9;1.6;;;;;;;20.25;37.22852;925.5986;;;;
2021/04/27 12:40:19;;;;;;;1.8;1.3;;;;;;;20.16;37.8623;925.571;;;;
2021/04/27 12:42:44;;;;;;;4.1;1.8;;;;;;;19.72;36.96191;925.5756;;;;
2021/04/27 12:45:14;;;;;;;9.4;1.3;;;;;;;19.36;39.23828;925.555;;;;
2021/04/27 12:47:39;;;;;;;2.8;1.2;;;;;;;19.16;39.82617;925.6102;;;;
2021/04/27 12:50:04;;;;;;;2.2;1.4;;;;;;;19.13;39.45117;925.5388;;;;
2021/04/27 12:52:29;;;;;;;2.6;1.1;;;;;;;18.92;39.33984;925.5765;;;;
2021/04/27 12:54:55;;;;;;;5.3;1.6;;;;;;;18.95;41.18164;925.5365;;;;
2021/04/27 12:57:19;;;;;;;1.2;1;;;;;;;19.16;38.90625;925.598;;;;
2021/04/27 12:59:45;;;;;;;2.2;1.6;;;;;;;19.47;37.57129;925.6252;;;;
2021/04/27 13:02:13;;;;;;;1.9;1.5;;;;;;;19.62;37.99219;925.4952;;;;
2021/04/27 13:04:41;;;;;;;1.4;1.1;;;;;;;19.93;37.45801;925.5427;;;;
2021/04/27 13:07:06;;;;;;;1.2;1;;;;;;;19.44;37.87109;925.4602;;;;
2021/04/27 13:09:31;;;;;;;2.8;1.8;;;;;;;19.57;38.9082;925.389;;;;
2021/04/27 13:11:56;;;;;;;1.6;1.1;;;;;;;19.47;39.0625;925.4934;;;;
2021/04/27 13:14:26;;;;;;;2.3;1.5;;;;;;;19.62;38.22559;925.3541;;;;
2021/04/27 13:16:52;;;;;;;2;1;;;;;;;19.57;38.66309;925.3755;;;;
2021/04/27 13:19:20;;;;;;;2.8;1.5;;;;;;;19.81;36.80664;925.2971;;;;
2021/04/27 13:21:47;;;;;;;1.2;1.1;;;;;;;19.63;39.77539;925.3198;;;;
2021/04/27 13:24:16;;;;;;;5.4;1.2;;;;;;;19.61;38.06055;925.2815;;;;
2021/04/27 13:26:41;;;;;;;4.3;1.4;;;;;;;19.76;38.7959;925.3453;;;;
2021/04/27 13:29:06;;;;;;;1.9;1;;;;;;;19.97;36.66797;925.2299;;;;
2021/04/27 13:31:31;;;;;;;1.5;1.1;;;;;;;20.18;37.02441;925.2442;;;;
2021/04/27 13:33:56;;;;;;;1.4;1.2;;;;;;;19.89;37.13965;925.2303;;;;
2021/04/27 13:36:22;;;;;;;2.9;1.6;;;;;;;20.02;36.68457;925.1823;;;;
2021/04/27 13:38:48;;;;;;;1.3;1.2;;;;;;;20.12;37.22852;925.1883;;;;
2021/04/27 13:41:14;;;;;;;1.7;1.3;;;;;;;20.22;35.6377;925.1309;;;;
2021/04/27 13:43:40;;;;;;;1.4;1.1;;;;;;;20.1;35.44238;925.185;;;;
2021/04/27 13:46:06;;;;;;;2.7;1.3;;;;;;;20.13;36.64648;925.1537;;;;
2021/04/27 13:48:31;;;;;;;2.4;1.1;;;;;;;20.02;36.83594;925.1525;;;;
2021/04/27 13:50:57;;;;;;;6.8;1.3;;;;;;;19.92;37.11914;925.0601;;;;
2021/04/27 13:53:22;;;;;;;1.8;1.3;;;;;;;19.84;37.07715;925.0342;;;;
2021/04/27 13:55:48;;;;;;;1.6;1.1;;;;;;;19.94;37.19043;925.064;;;;
2021/04/27 13:58:13;;;;;;;1.6;1;;;;;;;19.74;38.23438;925.0603;;;;
2021/04/27 14:00:41;;;;;;;1.3;1.2;;;;;;;19.33;40.08691;925.1292;;;;
2021/04/27 14:03:05;;;;;;;1.1;1;;;;;;;19.63;38.31836;925.0397;;;;
2021/04/27 14:05:32;;;;;;;4.8;1.4;;;;;;;19.6;38.8877;925.0575;;;;
2021/04/27 14:07:57;;;;;;;2.6;1.4;;;;;;;19.43;38.0918;925.0645;;;;
2021/04/27 14:10:22;;;;;;;2.1;1.6;;;;;;;19.12;39.87012;925.0583;;;;
2021/04/27 14:12:47;;;;;;;2.1;1.4;;;;;;;19.02;38.66211;925.1077;;;;
2021/04/27 14:15:21;;;;;;;2.2;1.6;;;;;;;18.54;40.5498;925.0606;;;;
2021/04/27 14:17:51;;;;;;;1.9;1.2;;;;;;;18.45;41.95996;925.1393;;;;
2021/04/27 14:20:14;;;;;;;1.6;1.1;;;;;;;18.3;40.7373;925.085;;;;
2021/04/27 14:22:41;;;;;;;1.9;1.5;;;;;;;18.02;40.75781;925.0137;;;;
2021/04/27 14:25:06;;;;;;;3.5;1.4;;;;;;;17.72;40.65918;925.0051;;;;
2021/04/27 14:27:35;;;;;;;1.9;1.3;;;;;;;17.82;40.99414;925.106;;;;
2021/04/27 14:30:00;;;;;;;1.7;1.3;;;;;;;17.26;43.60938;925.0281;;;;
2021/04/27 14:32:28;;;;;;;4.9;1.2;;;;;;;17.14;45.02246;925.0678;;;;